Time;durP1;ratioP1;P1;durP2;ratioP2;P2;SDS_P1;SDS_P2;PMS_P1;PMS_P2;Temp;Humidity;BMP_temperature;BMP_pressure;BME280_temperature;BME280_humidity;BME280_pressure;Samples;Min_cycle;Max_cycle;Signal;HPM_P1;HPM_P2
2024/01/19 00:01:18;;;;;;;;;;;;;;;16.55;38.80;99278.41;10325658;28;932;-71
2024/01/19 00:06:15;;;;;;;;;;;;;;;16.55;38.99;99283.66;10325554;28;892;-70
2024/01/19 00:11:10;;;;;;;;;;;;;;;16.54;38.96;99288.06;10325991;28;1977;-70
2024/01/19 00:16:06;;;;;;;;;;;;;;;16.54;38.90;99295.13;10326123;28;845;-70
2024/01/19 00:21:02;;;;;;;;;;;;;;;16.53;38.96;99310.06;10325899;28;802;-70
2024/01/19 00:25:58;;;;;;;;;;;;;;;16.52;38.77;99318.84;10325732;28;1164;-70
2024/01/19 00:30:54;;;;;;;;;;;;;;;16.51;38.92;99314.53;10325772;28;1886;-70
2024/01/19 00:35:50;;;;;;;;;;;;;;;16.51;38.93;99325.06;10324325;28;913;-70
2024/01/19 00:40:46;;;;;;;;;;;;;;;16.50;39.03;99325.09;10325350;28;864;-70
2024/01/19 00:45:41;;;;;;;;;;;;;;;16.50;38.75;99319.84;10331017;28;849;-70
2024/01/19 00:50:37;;;;;;;;;;;;;;;16.49;38.97;99323.41;10332725;28;1953;-70
2024/01/19 00:55:33;;;;;;;;;;;;;;;16.49;38.80;99336.56;10332651;28;865;-71
2024/01/19 01:00:29;;;;;;;;;;;;;;;16.48;38.95;99338.34;10333020;28;818;-70
2024/01/19 01:05:25;;;;;;;;;;;;;;;16.47;38.81;99339.25;10332203;28;873;-70
2024/01/19 01:10:21;;;;;;;;;;;;;;;16.47;38.91;99341.03;10332770;28;1943;-70
2024/01/19 01:15:17;;;;;;;;;;;;;;;16.47;38.89;99341.88;10332397;28;862;-70
2024/01/19 01:20:15;;;;;;;;;;;;;;;16.46;38.80;99347.22;10332227;28;1615;-71
2024/01/19 01:25:11;;;;;;;;;;;;;;;16.45;38.56;99359.50;10331194;28;989;-70
2024/01/19 01:30:08;;;;;;;;;;;;;;;16.43;38.48;99364.84;10331339;28;1968;-70
2024/01/19 01:35:04;;;;;;;;;;;;;;;16.43;38.71;99372.75;10330929;28;1005;-70
2024/01/19 01:40:00;;;;;;;;;;;;;;;16.42;38.55;99389.41;10331671;28;953;-70
2024/01/19 01:44:56;;;;;;;;;;;;;;;16.43;38.56;99393.78;10330785;28;809;-70
2024/01/19 01:49:52;;;;;;;;;;;;;;;16.42;38.35;99388.56;10330458;28;1951;-70
2024/01/19 01:54:48;;;;;;;;;;;;;;;16.42;38.55;99404.34;10330089;28;807;-70
2024/01/19 01:59:44;;;;;;;;;;;;;;;16.41;38.37;99402.66;10330431;28;814;-70
2024/01/19 02:04:40;;;;;;;;;;;;;;;16.40;38.29;99399.19;10329867;28;1346;-70
2024/01/19 02:09:36;;;;;;;;;;;;;;;16.40;38.35;99407.06;10329754;28;1965;-70
2024/01/19 02:14:32;;;;;;;;;;;;;;;16.39;38.66;99412.38;10329736;28;798;-70
2024/01/19 02:19:28;;;;;;;;;;;;;;;16.38;38.61;99408.91;10330106;28;794;-70
2024/01/19 02:24:24;;;;;;;;;;;;;;;16.38;38.45;99413.31;10329826;28;850;-70
2024/01/19 02:29:20;;;;;;;;;;;;;;;16.37;38.43;99430.00;10329558;28;1898;-70
2024/01/19 02:34:17;;;;;;;;;;;;;;;16.37;38.43;99444.03;10329335;28;1906;-70
2024/01/19 02:39:13;;;;;;;;;;;;;;;16.36;38.43;99437.03;10328679;28;838;-70
2024/01/19 02:44:09;;;;;;;;;;;;;;;16.35;38.41;99440.59;10329044;28;1548;-70
2024/01/19 02:49:05;;;;;;;;;;;;;;;16.35;38.10;99442.38;10328304;28;913;-70
2024/01/19 02:54:01;;;;;;;;;;;;;;;16.34;38.24;99438.88;10328202;28;1955;-70
2024/01/19 02:58:56;;;;;;;;;;;;;;;16.34;38.35;99444.13;10327867;28;901;-70
2024/01/19 03:03:52;;;;;;;;;;;;;;;16.33;38.27;99444.22;10327982;28;860;-70
2024/01/19 03:08:48;;;;;;;;;;;;;;;16.33;37.89;99454.75;10327356;28;770;-70
2024/01/19 03:13:44;;;;;;;;;;;;;;;16.32;37.97;99471.41;10327706;28;1902;-70
2024/01/19 03:18:40;;;;;;;;;;;;;;;16.30;37.99;99462.75;10327032;28;883;-70
2024/01/19 03:23:36;;;;;;;;;;;;;;;16.31;38.02;99467.94;10326886;28;878;-70
2024/01/19 03:28:32;;;;;;;;;;;;;;;16.30;37.95;99468.03;10327003;28;1145;-70
2024/01/19 03:33:27;;;;;;;;;;;;;;;16.29;37.71;99480.28;10327098;28;1910;-70
2024/01/19 03:38:23;;;;;;;;;;;;;;;16.28;37.83;99493.53;10326431;28;866;-70
2024/01/19 03:43:19;;;;;;;;;;;;;;;16.29;37.81;99508.38;10326215;28;874;-70
2024/01/19 03:48:15;;;;;;;;;;;;;;;16.28;37.89;99507.53;10326686;28;873;-70
2024/01/19 03:53:11;;;;;;;;;;;;;;;16.27;37.95;99510.19;10326474;28;1901;-70
2024/01/19 03:58:07;;;;;;;;;;;;;;;16.26;37.75;99503.25;10326372;28;846;-70
2024/01/19 04:03:03;;;;;;;;;;;;;;;16.27;37.41;99486.53;10325736;28;914;-71
2024/01/19 04:07:58;;;;;;;;;;;;;;;16.27;37.83;99515.47;10307548;28;2196;-70
2024/01/19 04:12:54;;;;;;;;;;;;;;;16.26;37.39;99506.72;10326042;28;1902;-70
2024/01/19 04:17:50;;;;;;;;;;;;;;;16.26;37.62;99506.72;10325307;28;952;-70
2024/01/19 04:22:46;;;;;;;;;;;;;;;16.26;37.63;99503.25;10326049;28;873;-70
2024/01/19 04:27:42;;;;;;;;;;;;;;;16.26;37.41;99504.09;10325923;28;1354;-70
2024/01/19 04:32:38;;;;;;;;;;;;;;;16.26;37.60;99514.63;10325866;28;1909;-70
2024/01/19 04:37:34;;;;;;;;;;;;;;;16.28;37.60;99518.03;10325536;28;953;-70
2024/01/19 04:42:29;;;;;;;;;;;;;;;16.29;37.63;99525.00;10324338;28;874;-71
2024/01/19 04:47:25;;;;;;;;;;;;;;;16.32;37.80;99534.53;10324656;28;973;-71
2024/01/19 04:52:21;;;;;;;;;;;;;;;16.30;37.60;99524.09;10324497;28;1893;-71
2024/01/19 04:57:17;;;;;;;;;;;;;;;16.31;37.74;99525.81;10324005;28;1012;-71
2024/01/19 05:02:13;;;;;;;;;;;;;;;16.32;37.62;99529.28;10325148;28;953;-70
2024/01/19 05:07:09;;;;;;;;;;;;;;;16.31;37.44;99538.94;10324329;28;892;-70
2024/01/19 05:12:05;;;;;;;;;;;;;;;16.33;37.75;99552.06;10323624;28;1890;-70
2024/01/19 05:17:01;;;;;;;;;;;;;;;16.34;37.55;99565.13;10324213;28;1237;-70
2024/01/19 05:21:56;;;;;;;;;;;;;;;16.35;37.77;99569.50;10325358;28;783;-70
2024/01/19 05:26:52;;;;;;;;;;;;;;;16.37;37.78;99585.19;10323804;28;1268;-70
2024/01/19 05:31:48;;;;;;;;;;;;;;;16.39;37.67;99601.78;10330826;28;1914;-70
2024/01/19 05:36:44;;;;;;;;;;;;;;;16.40;37.69;99616.63;10332124;28;857;-70
2024/01/19 05:41:40;;;;;;;;;;;;;;;16.40;37.75;99614.00;10331010;28;802;-70
2024/01/19 05:46:36;;;;;;;;;;;;;;;16.43;37.77;99612.13;10330773;28;817;-71
2024/01/19 05:51:32;;;;;;;;;;;;;;;16.40;37.76;99622.78;10330557;28;1952;-70
2024/01/19 05:56:27;;;;;;;;;;;;;;;16.42;37.73;99631.44;10329836;28;933;-70
2024/01/19 06:01:23;;;;;;;;;;;;;;;16.45;37.63;99635.72;10330928;28;992;-70
2024/01/19 06:06:19;;;;;;;;;;;;;;;16.46;37.78;99626.09;10330289;28;887;-70
2024/01/19 06:11:15;;;;;;;;;;;;;;;16.44;37.81;99629.59;10330533;28;1902;-70
2024/01/19 06:16:11;;;;;;;;;;;;;;;16.44;37.85;99632.25;10330428;28;877;-70
2024/01/19 06:21:07;;;;;;;;;;;;;;;16.44;37.92;99640.13;10329490;28;786;-71
2024/01/19 06:26:03;;;;;;;;;;;;;;;16.48;37.89;99650.53;10329879;28;1297;-70
2024/01/19 06:30:59;;;;;;;;;;;;;;;16.47;38.14;99659.34;10329135;28;1910;-70
2024/01/19 06:35:55;;;;;;;;;;;;;;;16.47;37.85;99661.97;10328793;28;906;-71
2024/01/19 06:40:51;;;;;;;;;;;;;;;16.51;37.90;99671.47;10327646;28;845;-70
2024/01/19 06:45:47;;;;;;;;;;;;;;;16.47;38.06;99672.50;10328735;28;869;-70
2024/01/19 06:50:43;;;;;;;;;;;;;;;16.49;37.96;99681.19;10328091;28;1951;-71
2024/01/19 06:55:38;;;;;;;;;;;;;;;16.51;38.04;99684.63;10328638;28;918;-70
2024/01/19 07:00:34;;;;;;;;;;;;;;;16.50;37.90;99686.38;10327856;28;763;-70
2024/01/19 07:05:30;;;;;;;;;;;;;;;16.50;37.79;99694.28;10327541;28;874;-71
2024/01/19 07:10:26;;;;;;;;;;;;;;;16.48;37.84;99705.78;10327981;28;1943;-72
2024/01/19 07:15:22;;;;;;;;;;;;;;;16.45;38.14;99725.16;10327308;28;901;-71
2024/01/19 07:20:18;;;;;;;;;;;;;;;16.43;38.25;99717.34;10327119;28;798;-70
2024/01/19 07:25:14;;;;;;;;;;;;;;;16.41;38.07;99720.97;10326610;28;1259;-70
2024/01/19 07:30:10;;;;;;;;;;;;;;;16.39;38.05;99730.66;10326739;28;1914;-70
2024/01/19 07:35:06;;;;;;;;;;;;;;;16.38;37.94;99739.50;10325983;28;909;-71
2024/01/19 07:40:02;;;;;;;;;;;;;;;16.37;37.99;99751.78;10326351;28;873;-71
2024/01/19 07:44:58;;;;;;;;;;;;;;;16.37;38.11;99756.16;10326307;28;933;-71
2024/01/19 07:49:54;;;;;;;;;;;;;;;16.38;38.14;99771.91;10325433;28;1882;-71
2024/01/19 07:54:49;;;;;;;;;;;;;;;16.39;38.56;99778.88;10326274;28;799;-70
2024/01/19 07:59:45;;;;;;;;;;;;;;;16.40;38.38;99790.25;10325750;28;961;-70
2024/01/19 08:04:41;;;;;;;;;;;;;;;16.40;38.29;99803.41;10326321;28;779;-71
2024/01/19 08:09:37;;;;;;;;;;;;;;;16.42;38.42;99810.31;10325536;28;1890;-72
2024/01/19 08:14:33;;;;;;;;;;;;;;;16.39;38.49;99818.34;10324899;28;957;-71
2024/01/19 08:19:29;;;;;;;;;;;;;;;16.43;38.35;99825.22;10326609;28;932;-71
2024/01/19 08:24:25;;;;;;;;;;;;;;;16.45;38.35;99840.94;10325993;28;838;-71
2024/01/19 08:29:21;;;;;;;;;;;;;;;16.47;38.34;99846.16;10325976;28;1239;-75
2024/01/19 08:34:17;;;;;;;;;;;;;;;16.47;38.52;99849.63;10325579;28;1961;-74
2024/01/19 08:39:14;;;;;;;;;;;;;;;16.48;38.37;99855.75;10324457;28;842;-72
2024/01/19 08:44:10;;;;;;;;;;;;;;;16.50;38.26;99861.81;10325551;28;798;-71
2024/01/19 08:49:06;;;;;;;;;;;;;;;16.50;38.32;99864.44;10325144;28;835;-71
2024/01/19 08:54:02;;;;;;;;;;;;;;;16.46;38.11;99866.34;10324625;28;1949;-74
2024/01/19 08:58:57;;;;;;;;;;;;;;;16.43;38.28;99876.97;10325176;28;877;-73
2024/01/19 09:03:53;;;;;;;;;;;;;;;16.42;38.17;99884.00;10327394;28;858;-75
2024/01/19 09:08:49;;;;;;;;;;;;;;;16.35;38.44;99906.19;10332857;28;822;-75
2024/01/19 09:13:45;;;;;;;;;;;;;;;16.31;38.14;99901.94;10332130;28;1898;-71
2024/01/19 09:18:41;;;;;;;;;;;;;;;16.36;37.54;99920.19;10332482;28;878;-71
2024/01/19 09:23:38;;;;;;;;;;;;;;;16.38;37.40;99921.84;10332275;28;905;-71
2024/01/19 09:28:34;;;;;;;;;;;;;;;16.41;37.28;99931.41;10331936;28;1128;-70
2024/01/19 09:33:30;;;;;;;;;;;;;;;16.43;37.24;99942.75;10331860;28;1906;-70
2024/01/19 09:38:26;;;;;;;;;;;;;;;16.42;37.12;99949.75;10330550;28;1012;-71
2024/01/19 09:43:21;;;;;;;;;;;;;;;16.46;37.09;99957.56;10330965;28;911;-70
2024/01/19 09:48:17;;;;;;;;;;;;;;;16.46;37.00;99970.72;10331362;28;869;-70
2024/01/19 09:53:13;;;;;;;;;;;;;;;16.49;37.10;99978.50;10329919;28;1895;-71
2024/01/19 09:58:09;;;;;;;;;;;;;;;16.54;36.80;99981.84;10329840;28;830;-70
2024/01/19 10:03:05;;;;;;;;;;;;;;;16.51;36.96;99984.59;10330325;28;798;-70
2024/01/19 10:08:01;;;;;;;;;;;;;;;16.49;37.05;99995.16;10330636;28;878;-70
2024/01/19 10:12:57;;;;;;;;;;;;;;;16.50;37.06;99998.63;10329790;28;1902;-70
2024/01/19 10:17:52;;;;;;;;;;;;;;;16.50;37.10;100006.53;10328883;28;1016;-70
2024/01/19 10:22:48;;;;;;;;;;;;;;;16.53;37.20;100011.69;10330084;28;801;-71
2024/01/19 10:27:44;;;;;;;;;;;;;;;16.52;37.18;100015.25;10328543;28;1422;-71
2024/01/19 10:32:40;;;;;;;;;;;;;;;16.50;37.29;100011.78;10329005;28;1979;-71
2024/01/19 10:37:36;;;;;;;;;;;;;;;16.55;37.31;100028.28;10328837;28;862;-71
2024/01/19 10:42:32;;;;;;;;;;;;;;;16.53;37.18;100028.34;10329231;28;867;-71
2024/01/19 10:47:28;;;;;;;;;;;;;;;16.59;37.31;100032.56;10329027;28;846;-71
2024/01/19 10:52:24;;;;;;;;;;;;;;;16.57;37.32;100027.31;10328200;28;1964;-71
2024/01/19 10:57:19;;;;;;;;;;;;;;;16.60;37.38;100040.38;10328600;28;822;-71
2024/01/19 11:02:15;;;;;;;;;;;;;;;16.65;37.48;100048.13;10328486;28;853;-75
2024/01/19 11:07:11;;;;;;;;;;;;;;;16.64;37.54;100046.41;10327779;28;1086;-71
2024/01/19 11:12:07;;;;;;;;;;;;;;;16.63;37.62;100042.91;10327407;28;1972;-72
2024/01/19 11:17:03;;;;;;;;;;;;;;;16.66;37.42;100052.47;10327299;28;770;-71
2024/01/19 11:21:59;;;;;;;;;;;;;;;16.64;37.48;100041.16;10326983;28;767;-72
2024/01/19 11:26:55;;;;;;;;;;;;;;;16.67;37.52;100040.19;10326595;28;1089;-72
2024/01/19 11:31:50;;;;;;;;;;;;;;;16.77;36.71;100039.84;10326077;28;1913;-71
2024/01/19 11:36:47;;;;;;;;;;;;;;;16.72;37.32;100030.38;10327108;28;1097;-71
2024/01/19 11:41:44;;;;;;;;;;;;;;;16.73;37.42;100032.94;10326396;28;932;-71
2024/01/19 11:46:40;;;;;;;;;;;;;;;16.75;37.17;100038.16;10326433;28;914;-71
2024/01/19 11:51:36;;;;;;;;;;;;;;;16.76;37.08;100035.44;10326053;28;1898;-71
2024/01/19 11:56:32;;;;;;;;;;;;;;;16.76;37.27;100040.72;10325894;28;985;-70
2024/01/19 12:01:28;;;;;;;;;;;;;;;16.76;37.30;100035.44;10326403;28;895;-71
2024/01/19 12:06:24;;;;;;;;;;;;;;;16.81;37.07;100045.84;10326302;28;885;-71
2024/01/19 12:11:21;;;;;;;;;;;;;;;16.83;37.45;100042.25;10324917;28;1955;-71
2024/01/19 12:16:16;;;;;;;;;;;;;;;16.83;37.44;100039.63;10325669;28;854;-71
2024/01/19 12:21:12;;;;;;;;;;;;;;;16.90;36.86;100032.41;10324792;28;936;-71
2024/01/19 12:26:08;;;;;;;;;;;;;;;16.94;37.09;100041.03;10325627;28;1319;-71
2024/01/19 12:31:04;;;;;;;;;;;;;;;16.96;37.42;100041.84;10325759;28;1918;-71
2024/01/19 12:36:00;;;;;;;;;;;;;;;17.01;37.21;100046.03;10325666;28;854;-71
2024/01/19 12:40:57;;;;;;;;;;;;;;;17.06;37.06;100045.88;10331339;28;886;-71
2024/01/19 12:45:53;;;;;;;;;;;;;;;17.06;37.14;100052.00;10333226;28;879;-71
2024/01/19 12:50:48;;;;;;;;;;;;;;;17.09;37.06;100057.16;10333526;28;1945;-72
2024/01/19 12:55:45;;;;;;;;;;;;;;;17.04;37.20;100061.72;10334133;28;924;-72
2024/01/19 13:00:42;;;;;;;;;;;;;;;16.98;37.57;100069.00;10332619;28;1005;-71
2024/01/19 13:05:37;;;;;;;;;;;;;;;17.09;36.91;100066.84;10332420;28;883;-71
2024/01/19 13:10:33;;;;;;;;;;;;;;;17.06;37.12;100065.16;10332121;28;1894;-72
2024/01/19 13:15:29;;;;;;;;;;;;;;;17.12;37.15;100068.50;10331972;28;886;-75
2024/01/19 13:20:25;;;;;;;;;;;;;;;17.12;37.10;100065.88;10331799;28;877;-75
2024/01/19 13:25:21;;;;;;;;;;;;;;;17.14;37.05;100061.41;10331832;28;1419;-75
2024/01/19 13:30:17;;;;;;;;;;;;;;;17.15;36.89;100058.69;10331102;28;1913;-75
2024/01/19 13:35:13;;;;;;;;;;;;;;;17.19;37.05;100075.28;10328055;28;1090;-74
2024/01/19 13:40:09;;;;;;;;;;;;;;;17.23;36.83;100075.09;10330658;28;744;-75
2024/01/19 13:45:04;;;;;;;;;;;;;;;17.25;36.88;100083.81;10330564;28;901;-74
2024/01/19 13:50:00;;;;;;;;;;;;;;;17.28;36.78;100090.75;10330087;28;1905;-74
2024/01/19 13:54:56;;;;;;;;;;;;;;;17.29;37.03;100093.34;10330232;28;873;-74
2024/01/19 13:59:52;;;;;;;;;;;;;;;17.30;36.66;100100.31;10331293;28;991;-74
2024/01/19 14:04:48;;;;;;;;;;;;;;;17.25;36.86;100118.06;10329751;28;881;-71
2024/01/19 14:09:44;;;;;;;;;;;;;;;17.33;37.20;100145.91;10329819;28;822;-71
2024/01/19 14:14:40;;;;;;;;;;;;;;;17.29;37.58;100164.47;10329220;28;1894;-71
2024/01/19 14:19:37;;;;;;;;;;;;;;;17.24;37.87;100163.75;10329984;28;860;-71
2024/01/19 14:24:33;;;;;;;;;;;;;;;17.22;37.65;100170.84;10328181;28;786;-71
2024/01/19 14:29:29;;;;;;;;;;;;;;;17.15;37.38;100169.34;10329617;28;1252;-72
2024/01/19 14:34:25;;;;;;;;;;;;;;;17.15;37.49;100174.59;10327611;28;1910;-71
2024/01/19 14:39:21;;;;;;;;;;;;;;;17.21;37.01;100171.78;10329189;28;778;-71
2024/01/19 14:44:18;;;;;;;;;;;;;;;17.04;37.72;100198.66;10328391;28;847;-74
2024/01/19 14:49:14;;;;;;;;;;;;;;;16.99;37.70;100205.00;10328058;28;1568;-74
2024/01/19 14:54:14;;;;;;;;;;;;;;;16.93;37.70;100208.69;10328546;28;1889;-74
2024/01/19 14:59:10;;;;;;;;;;;;;;;16.87;37.64;100216.78;10328428;28;855;-74
2024/01/19 15:04:06;;;;;;;;;;;;;;;16.85;37.66;100226.50;10326971;28;930;-74
2024/01/19 15:09:02;;;;;;;;;;;;;;;16.79;37.48;100232.84;10328338;28;837;-75
2024/01/19 15:13:58;;;;;;;;;;;;;;;16.80;37.70;100244.22;10327339;28;1977;-74
2024/01/19 15:18:54;;;;;;;;;;;;;;;16.75;37.50;100227.69;10327376;28;956;-74
2024/01/19 15:23:50;;;;;;;;;;;;;;;16.73;37.53;100235.59;10327691;28;767;-74
2024/01/19 15:28:46;;;;;;;;;;;;;;;16.70;37.60;100230.44;10326157;28;1366;-74
2024/01/19 15:33:44;;;;;;;;;;;;;;;16.67;37.54;100225.28;10326688;28;1969;-74
2024/01/19 15:38:40;;;;;;;;;;;;;;;16.65;37.69;100241.09;10326483;28;958;-74
2024/01/19 15:43:36;;;;;;;;;;;;;;;16.64;37.71;100233.28;10325668;28;1247;-74
2024/01/19 15:48:32;;;;;;;;;;;;;;;16.62;37.54;100228.06;10326208;28;766;-74
2024/01/19 15:53:28;;;;;;;;;;;;;;;16.59;37.64;100232.56;10325983;28;1889;-75
2024/01/19 15:58:23;;;;;;;;;;;;;;;16.56;37.52;100241.41;10326092;28;972;-74
2024/01/19 16:03:19;;;;;;;;;;;;;;;16.55;37.72;100244.94;10325784;28;962;-74
2024/01/19 16:08:15;;;;;;;;;;;;;;;16.54;37.67;100245.00;10326300;28;799;-74
2024/01/19 16:13:11;;;;;;;;;;;;;;;16.52;37.74;100247.66;10325863;28;1951;-74
2024/01/19 16:18:07;;;;;;;;;;;;;;;16.52;37.62;100252.06;10326049;28;842;-75
2024/01/19 16:23:03;;;;;;;;;;;;;;;16.51;37.56;100250.34;10324743;28;1157;-75
2024/01/19 16:27:58;;;;;;;;;;;;;;;16.48;37.63;100259.19;10326193;28;1156;-75
2024/01/19 16:32:54;;;;;;;;;;;;;;;16.48;37.64;100256.56;10325077;28;1913;-74
2024/01/19 16:37:50;;;;;;;;;;;;;;;16.49;37.66;100267.94;10325774;28;811;-74
2024/01/19 16:42:46;;;;;;;;;;;;;;;16.47;37.57;100275.03;10325679;28;879;-78
2024/01/19 16:47:42;;;;;;;;;;;;;;;16.46;37.74;100278.56;10324880;28;941;-74
2024/01/19 16:52:38;;;;;;;;;;;;;;;16.43;37.57;100285.63;10324121;28;1957;-74
2024/01/19 16:57:34;;;;;;;;;;;;;;;16.44;37.66;100278.59;10324733;28;861;-79
2024/01/19 17:02:29;;;;;;;;;;;;;;;16.43;37.71;100276.88;10325302;28;815;-74
2024/01/19 17:07:25;;;;;;;;;;;;;;;16.42;37.68;100286.53;10325178;28;893;-74
2024/01/19 17:12:21;;;;;;;;;;;;;;;16.41;37.51;100287.44;10324341;28;1886;-75
2024/01/19 17:17:17;;;;;;;;;;;;;;;16.37;37.66;100298.09;10324968;28;948;-74
2024/01/19 17:22:13;;;;;;;;;;;;;;;16.33;37.70;100302.59;10324273;28;800;-74
2024/01/19 17:27:09;;;;;;;;;;;;;;;16.31;37.64;100307.03;10329879;28;1182;-74
2024/01/19 17:32:05;;;;;;;;;;;;;;;16.28;37.61;100319.41;10331988;28;1973;-74
2024/01/19 17:37:02;;;;;;;;;;;;;;;16.25;37.67;100312.47;10331571;28;775;-74
2024/01/19 17:41:58;;;;;;;;;;;;;;;16.26;37.79;100321.22;10331080;28;1009;-75
2024/01/19 17:46:56;;;;;;;;;;;;;;;16.25;37.75;100320.38;10330294;28;979;-74
2024/01/19 17:51:52;;;;;;;;;;;;;;;16.26;37.69;100337.84;10330720;28;1890;-74
2024/01/19 17:56:48;;;;;;;;;;;;;;;16.27;37.80;100347.50;10330555;28;912;-74
2024/01/19 18:01:44;;;;;;;;;;;;;;;16.28;37.66;100358.88;10330339;28;795;-74
2024/01/19 18:06:40;;;;;;;;;;;;;;;16.28;37.72;100366.75;10330218;28;775;-74
2024/01/19 18:11:36;;;;;;;;;;;;;;;16.27;37.52;100368.53;10330566;28;1898;-74
2024/01/19 18:16:32;;;;;;;;;;;;;;;16.30;37.57;100381.59;10329933;28;818;-74
2024/01/19 18:21:27;;;;;;;;;;;;;;;16.31;37.66;100390.34;10329658;28;775;-74
2024/01/19 18:26:26;;;;;;;;;;;;;;;16.32;37.50;100407.84;10330151;28;1926;-74
2024/01/19 18:31:22;;;;;;;;;;;;;;;16.31;37.69;100399.09;10329252;28;1887;-74
2024/01/19 18:36:18;;;;;;;;;;;;;;;16.33;37.50;100399.94;10329651;28;952;-74
2024/01/19 18:41:14;;;;;;;;;;;;;;;16.32;37.74;100400.84;10329486;28;933;-74
2024/01/19 18:46:10;;;;;;;;;;;;;;;16.35;37.55;100407.78;10329255;28;819;-74
2024/01/19 18:51:06;;;;;;;;;;;;;;;16.34;37.71;100406.91;10328957;28;1902;-74
2024/01/19 18:56:02;;;;;;;;;;;;;;;16.34;37.51;100404.28;10328270;28;841;-74
2024/01/19 19:00:58;;;;;;;;;;;;;;;16.37;37.56;100411.22;10328811;28;799;-74
2024/01/19 19:05:53;;;;;;;;;;;;;;;16.34;37.68;100414.78;10328446;28;927;-75
2024/01/19 19:10:49;;;;;;;;;;;;;;;16.35;37.56;100413.91;10328178;28;1951;-74
2024/01/19 19:15:45;;;;;;;;;;;;;;;16.37;37.74;100433.16;10328049;28;969;-74
2024/01/19 19:20:42;;;;;;;;;;;;;;;16.37;37.63;100430.53;10326688;28;901;-74
2024/01/19 19:25:38;;;;;;;;;;;;;;;16.37;37.74;100433.16;10326766;28;1111;-74
2024/01/19 19:30:34;;;;;;;;;;;;;;;16.36;37.56;100434.03;10327389;28;2028;-74
2024/01/19 19:35:31;;;;;;;;;;;;;;;16.38;37.57;100434.88;10325972;28;1173;-74
2024/01/19 19:40:27;;;;;;;;;;;;;;;16.39;37.56;100447.09;10327034;28;792;-74
2024/01/19 19:45:23;;;;;;;;;;;;;;;16.37;37.62;100451.56;10326282;28;907;-74
2024/01/19 19:50:19;;;;;;;;;;;;;;;16.39;37.68;100449.75;10326334;28;1918;-74
2024/01/19 19:55:15;;;;;;;;;;;;;;;16.39;37.61;100452.38;10326074;28;763;-74
2024/01/19 20:00:10;;;;;;;;;;;;;;;16.39;37.81;100462.91;10326023;28;881;-75
2024/01/19 20:05:13;;;;;;;;;;;;;;;16.40;37.69;100474.28;10325797;28;894;-74
2024/01/19 20:10:09;;;;;;;;;;;;;;;16.40;37.89;100477.81;10326253;28;1889;-74
2024/01/19 20:15:05;;;;;;;;;;;;;;;16.39;37.73;100476.06;10326182;28;799;-74
2024/01/19 20:20:01;;;;;;;;;;;;;;;16.42;37.72;100485.63;10325529;28;801;-74
2024/01/19 20:24:57;;;;;;;;;;;;;;;16.40;37.80;100480.44;10325747;28;1113;-74
2024/01/19 20:29:53;;;;;;;;;;;;;;;16.40;37.67;100475.16;10325387;28;818;-74
2024/01/19 20:34:49;;;;;;;;;;;;;;;16.42;37.82;100478.59;10324564;28;1961;-75
2024/01/19 20:39:45;;;;;;;;;;;;;;;16.42;37.41;100486.50;10325032;28;946;-74
2024/01/19 20:44:41;;;;;;;;;;;;;;;16.40;37.53;100485.69;10325065;28;880;-74
2024/01/19 20:49:37;;;;;;;;;;;;;;;16.40;37.46;100485.69;10325486;28;862;-74
2024/01/19 20:54:35;;;;;;;;;;;;;;;16.38;37.67;100482.22;10324762;28;1898;-75
2024/01/19 20:59:30;;;;;;;;;;;;;;;16.38;37.40;100486.63;10326226;28;895;-74
2024/01/19 21:04:26;;;;;;;;;;;;;;;16.38;37.55;100484.00;10332642;28;1012;-74
2024/01/19 21:09:22;;;;;;;;;;;;;;;16.39;37.46;100491.84;10332447;28;858;-75
2024/01/19 21:14:18;;;;;;;;;;;;;;;16.37;37.62;100505.94;10331940;28;1894;-75
2024/01/19 21:19:14;;;;;;;;;;;;;;;16.38;37.63;100505.06;10333246;28;854;-74
2024/01/19 21:24:11;;;;;;;;;;;;;;;16.36;37.48;100505.06;10332302;28;944;-74
2024/01/19 21:29:07;;;;;;;;;;;;;;;16.38;37.56;100512.94;10330823;28;1380;-74
2024/01/19 21:34:03;;;;;;;;;;;;;;;16.35;37.57;100511.25;10331358;28;1976;-74
2024/01/19 21:38:59;;;;;;;;;;;;;;;16.37;37.29;100512.09;10331223;28;941;-74
2024/01/19 21:43:55;;;;;;;;;;;;;;;16.36;37.65;100507.72;10331136;28;779;-74
2024/01/19 21:48:51;;;;;;;;;;;;;;;16.35;37.41;100513.88;10330360;28;870;-74
2024/01/19 21:53:49;;;;;;;;;;;;;;;16.34;37.42;100521.81;10331709;28;1898;-74
2024/01/19 21:58:45;;;;;;;;;;;;;;;16.34;37.67;100530.56;10330639;28;876;-74
2024/01/19 22:03:41;;;;;;;;;;;;;;;16.33;37.62;100525.34;10330333;28;893;-74
2024/01/19 22:08:36;;;;;;;;;;;;;;;16.31;37.66;100535.03;10330247;28;828;-74
2024/01/19 22:13:32;;;;;;;;;;;;;;;16.30;37.64;100547.34;10330316;28;1894;-74
2024/01/19 22:18:36;;;;;;;;;;;;;;;16.29;37.45;100539.47;10329878;28;931;-74
2024/01/19 22:23:34;;;;;;;;;;;;;;;16.26;37.55;100540.41;10329734;28;868;-74
2024/01/19 22:28:34;;;;;;;;;;;;;;;16.26;37.79;100550.06;10330121;28;1160;-74
2024/01/19 22:33:30;;;;;;;;;;;;;;;16.25;37.59;100562.38;10329233;28;1981;-74
2024/01/19 22:38:25;;;;;;;;;;;;;;;16.25;37.76;100567.63;10329129;28;782;-74
2024/01/19 22:43:21;;;;;;;;;;;;;;;16.25;37.64;100572.03;10328253;28;941;-74
2024/01/19 22:48:17;;;;;;;;;;;;;;;16.24;37.48;100570.28;10329215;28;931;-74
2024/01/19 22:53:13;;;;;;;;;;;;;;;16.20;37.79;100573.00;10328780;28;1893;-74
2024/01/19 22:58:09;;;;;;;;;;;;;;;16.21;37.64;100584.38;10328511;28;893;-74
2024/01/19 23:03:05;;;;;;;;;;;;;;;16.20;37.45;100580.03;10328068;28;774;-74
2024/01/19 23:08:01;;;;;;;;;;;;;;;16.17;37.58;100585.34;10327872;28;913;-74
2024/01/19 23:12:57;;;;;;;;;;;;;;;16.17;37.52;100594.09;10328199;28;1957;-74
2024/01/19 23:17:52;;;;;;;;;;;;;;;16.17;37.32;100596.75;10327629;28;925;-74
2024/01/19 23:22:48;;;;;;;;;;;;;;;16.16;37.41;100596.75;10327059;28;791;-74
2024/01/19 23:27:44;;;;;;;;;;;;;;;16.15;37.47;100590.63;10326947;28;1308;-74
2024/01/19 23:32:40;;;;;;;;;;;;;;;16.15;37.48;100595.91;10326803;28;1977;-74
2024/01/19 23:37:36;;;;;;;;;;;;;;;16.12;37.54;100611.75;10326723;28;953;-74
2024/01/19 23:42:32;;;;;;;;;;;;;;;16.14;37.39;100615.22;10325925;28;884;-74
2024/01/19 23:47:28;;;;;;;;;;;;;;;16.14;37.37;100614.38;10326358;28;781;-74
2024/01/19 23:52:24;;;;;;;;;;;;;;;16.13;37.51;100602.09;10326135;28;1934;-74
2024/01/19 23:57:20;;;;;;;;;;;;;;;16.13;37.60;100599.47;10326559;28;1148;-74
